Time;durP1;ratioP1;P1;durP2;ratioP2;P2;SDS_P1;SDS_P2;PMS_P1;PMS_P2;Temp;Humidity;BMP_temperature;BMP_pressure;BME280_temperature;BME280_humidity;BME280_pressure;Samples;Min_cycle;Max_cycle;Signal;HPM_P1;HPM_P2
2023/03/05 00:02:10;;;;;;;38.37;16.80;;;5.50;1.00;;;;;;5049088;28;20229;-71
2023/03/05 00:04:36;;;;;;;41.23;17.77;;;5.80;1.00;;;;;;5048226;28;20593;-71
2023/03/05 00:07:01;;;;;;;40.60;17.50;;;5.50;1.00;;;;;;5047996;28;20181;-71
2023/03/05 00:09:27;;;;;;;42.97;17.93;;;5.50;1.00;;;;;;5049256;28;20199;-71
2023/03/05 00:11:52;;;;;;;36.30;17.20;;;5.50;1.00;;;;;;5048745;28;20266;-72
2023/03/05 00:14:18;;;;;;;38.43;17.77;;;5.50;1.00;;;;;;5021253;28;20662;-71
2023/03/05 00:16:43;;;;;;;41.00;18.70;;;5.50;1.00;;;;;;5050043;28;20635;-71
2023/03/05 00:19:09;;;;;;;40.60;17.50;;;5.40;1.00;;;;;;5030772;28;20197;-71
2023/03/05 00:21:37;;;;;;;37.50;16.70;;;5.40;1.00;;;;;;5049366;28;20626;-71
2023/03/05 00:24:05;;;;;;;53.00;18.20;;;5.40;1.00;;;;;;5029092;28;20447;-71
2023/03/05 00:26:33;;;;;;;41.70;17.70;;;5.50;1.00;;;;;;5049031;28;20480;-70
2023/03/05 00:28:58;;;;;;;48.13;18.73;;;5.50;1.00;;;;;;5047045;28;20467;-71
2023/03/05 00:31:29;;;;;;;43.30;17.63;;;5.40;1.00;;;;;;5049226;28;20892;-71
2023/03/05 00:33:57;;;;;;;42.70;19.20;;;5.50;1.00;;;;;;5029735;28;20208;-71
2023/03/05 00:36:23;;;;;;;40.50;17.20;;;5.50;1.00;;;;;;5049322;28;20445;-71
2023/03/05 00:38:49;;;;;;;44.03;18.30;;;5.50;1.00;;;;;;5047983;28;20440;-71
2023/03/05 00:41:14;;;;;;;43.37;18.47;;;5.50;1.00;;;;;;5049062;28;20439;-70
2023/03/05 00:43:40;;;;;;;46.93;19.00;;;5.50;1.00;;;;;;5045686;28;20189;-71
2023/03/05 00:46:05;;;;;;;37.47;17.50;;;5.40;1.00;;;;;;5031523;28;20192;-71
2023/03/05 00:48:31;;;;;;;50.07;19.17;;;5.40;1.00;;;;;;5047765;28;20189;-71
2023/03/05 00:50:56;;;;;;;45.57;19.20;;;5.40;1.00;;;;;;5048410;28;20188;-71
2023/03/05 00:53:22;;;;;;;41.63;18.13;;;5.40;1.00;;;;;;5047333;28;20213;-71
2023/03/05 00:55:48;;;;;;;40.07;18.27;;;5.40;1.00;;;;;;5048379;28;20311;-71
2023/03/05 00:58:13;;;;;;;51.47;18.57;;;5.40;1.00;;;;;;5047473;28;20300;-70
2023/03/05 01:00:39;;;;;;;47.97;19.07;;;5.40;1.00;;;;;;5048837;28;20291;-71
2023/03/05 01:03:05;;;;;;;39.57;19.50;;;5.40;1.00;;;;;;5047033;28;20205;-71
2023/03/05 01:05:30;;;;;;;41.23;17.97;;;5.40;1.00;;;;;;5048677;28;20431;-72
2023/03/05 01:07:56;;;;;;;46.57;17.53;;;5.40;1.00;;;;;;5047743;28;20193;-71
2023/03/05 01:10:25;;;;;;;51.30;18.30;;;5.40;1.00;;;;;;5047344;28;20192;-70
2023/03/05 01:12:51;;;;;;;44.37;18.70;;;5.40;1.00;;;;;;5048547;28;20702;-71
2023/03/05 01:15:17;;;;;;;42.60;17.70;;;5.30;1.00;;;;;;5048096;28;20447;-71
2023/03/05 01:17:43;;;;;;;43.97;17.70;;;5.40;1.00;;;;;;5027262;28;20485;-71
2023/03/05 01:20:12;;;;;;;48.60;20.13;;;5.30;1.00;;;;;;5046598;28;20219;-71
2023/03/05 01:22:38;;;;;;;40.53;18.07;;;5.30;1.00;;;;;;5048084;28;20201;-72
2023/03/05 01:25:04;;;;;;;42.87;17.07;;;5.30;1.00;;;;;;5045974;28;20941;-71
2023/03/05 01:27:30;;;;;;;39.30;17.67;;;5.30;1.00;;;;;;5048367;28;20440;-71
2023/03/05 01:29:55;;;;;;;41.50;16.83;;;5.30;1.00;;;;;;5047797;28;20558;-71
2023/03/05 01:32:21;;;;;;;38.70;18.97;;;5.60;1.00;;;;;;5030536;28;20754;-71
2023/03/05 01:34:46;;;;;;;45.70;18.67;;;5.40;1.00;;;;;;5047701;28;20238;-71
2023/03/05 01:37:12;;;;;;;44.90;18.57;;;5.30;1.00;;;;;;5045893;28;20219;-71
2023/03/05 01:39:37;;;;;;;43.13;18.40;;;5.30;1.00;;;;;;5047819;28;20205;-72
2023/03/05 01:42:03;;;;;;;42.37;17.60;;;5.30;1.00;;;;;;5047759;28;20209;-71
2023/03/05 01:44:30;;;;;;;46.30;18.73;;;5.20;1.00;;;;;;5047154;28;20192;-71
2023/03/05 01:46:55;;;;;;;42.17;18.77;;;5.30;1.00;;;;;;5030526;28;20807;-72
2023/03/05 01:49:32;;;;;;;43.83;17.47;;;5.20;1.00;;;;;;5054689;28;20458;-71
2023/03/05 01:52:06;;;;;;;35.73;17.93;;;5.20;1.00;;;;;;5042910;28;20287;-71
2023/03/05 01:54:37;;;;;;;46.70;17.80;;;5.20;1.00;;;;;;5047719;28;20510;-71
2023/03/05 01:57:09;;;;;;;42.13;18.50;;;5.20;1.00;;;;;;5047430;28;20451;-70
2023/03/05 01:59:36;;;;;;;41.70;18.67;;;5.20;1.00;;;;;;5047098;28;20464;-71
2023/03/05 02:02:03;;;;;;;44.97;19.07;;;5.20;1.00;;;;;;5047608;28;20996;-71
2023/03/05 02:04:38;;;;;;;40.80;18.27;;;5.20;1.00;;;;;;5047186;28;20439;-71
2023/03/05 02:07:04;;;;;;;42.13;19.20;;;5.20;1.00;;;;;;5050118;28;20442;-71
2023/03/05 02:09:30;;;;;;;39.93;17.43;;;5.20;1.00;;;;;;5051178;28;20585;-71
2023/03/05 02:11:56;;;;;;;44.60;18.70;;;5.10;1.00;;;;;;5051089;28;21052;-70
2023/03/05 02:14:23;;;;;;;47.80;19.27;;;5.20;1.00;;;;;;5050945;28;20185;-71
2023/03/05 02:16:49;;;;;;;44.50;17.93;;;5.20;1.00;;;;;;5025970;28;20181;-71
2023/03/05 02:19:14;;;;;;;46.50;18.23;;;5.90;1.00;;;;;;5050293;28;20471;-70
2023/03/05 02:21:46;;;;;;;43.73;18.47;;;5.20;1.00;;;;;;5051077;28;21069;-71
2023/03/05 02:24:13;;;;;;;41.33;17.00;;;5.20;1.00;;;;;;5051058;28;20315;-71
2023/03/05 02:26:39;;;;;;;43.23;18.83;;;5.20;1.00;;;;;;5051441;28;20431;-71
2023/03/05 02:29:07;;;;;;;46.50;18.47;;;5.60;1.00;;;;;;5050217;28;20443;-71
2023/03/05 02:31:33;;;;;;;42.47;18.80;;;5.20;1.00;;;;;;5033159;28;20213;-71
2023/03/05 02:33:59;;;;;;;48.10;18.67;;;5.10;1.00;;;;;;5050535;28;20783;-71
2023/03/05 02:36:25;;;;;;;47.27;18.27;;;5.10;1.00;;;;;;5051349;28;20197;-71
2023/03/05 02:38:52;;;;;;;47.03;18.47;;;5.10;1.00;;;;;;5049881;28;20192;-71
2023/03/05 02:41:18;;;;;;;44.90;18.40;;;5.20;1.00;;;;;;5050466;28;21015;-71
2023/03/05 02:43:43;;;;;;;41.80;17.23;;;5.20;1.00;;;;;;5049169;28;20443;-70
2023/03/05 02:46:09;;;;;;;46.67;18.47;;;5.10;1.00;;;;;;5051329;28;20291;-71
2023/03/05 02:48:34;;;;;;;45.33;17.03;;;5.10;1.00;;;;;;5047822;28;20181;-71
2023/03/05 02:51:02;;;;;;;45.10;17.87;;;5.10;1.00;;;;;;5051541;28;20263;-71
2023/03/05 02:53:28;;;;;;;41.73;17.10;;;5.10;1.00;;;;;;5049152;28;20205;-71
2023/03/05 02:55:53;;;;;;;43.30;18.60;;;5.10;1.00;;;;;;5051255;28;20509;-71
2023/03/05 02:58:19;;;;;;;51.43;18.70;;;5.10;1.00;;;;;;5050000;28;20197;-71
2023/03/05 03:00:47;;;;;;;57.30;20.80;;;5.10;1.00;;;;;;5031029;28;20200;-71
2023/03/05 03:03:13;;;;;;;50.23;19.73;;;5.20;1.00;;;;;;5049087;28;21456;-70
2023/03/05 03:05:39;;;;;;;43.93;18.03;;;5.20;1.00;;;;;;5049101;28;20818;-71
2023/03/05 03:08:05;;;;;;;47.47;17.50;;;5.20;1.00;;;;;;5051023;28;20277;-71
2023/03/05 03:10:30;;;;;;;45.23;17.97;;;5.10;1.00;;;;;;5031893;28;20454;-71
2023/03/05 03:12:56;;;;;;;47.00;18.60;;;5.10;1.00;;;;;;5049708;28;20231;-71
2023/03/05 03:15:22;;;;;;;51.50;19.77;;;5.10;1.00;;;;;;5030874;28;20192;-71
2023/03/05 03:17:47;;;;;;;47.73;18.60;;;5.20;1.00;;;;;;5049439;28;20188;-70
2023/03/05 03:20:16;;;;;;;46.10;17.93;;;5.20;1.00;;;;;;5049351;28;20604;-71
2023/03/05 03:22:43;;;;;;;47.27;18.73;;;5.10;1.00;;;;;;5049252;28;21551;-71
2023/03/05 03:25:13;;;;;;;41.57;18.50;;;5.10;1.00;;;;;;5031208;28;20463;-71
2023/03/05 03:27:38;;;;;;;47.80;16.77;;;5.10;1.00;;;;;;5031250;28;20432;-71
2023/03/05 03:30:05;;;;;;;43.07;18.30;;;5.10;1.00;;;;;;5050591;28;20438;-71
2023/03/05 03:32:31;;;;;;;41.40;17.03;;;5.10;1.00;;;;;;5049404;28;20220;-71
2023/03/05 03:34:57;;;;;;;45.77;17.90;;;5.10;1.00;;;;;;5049061;28;20524;-71
2023/03/05 03:37:23;;;;;;;48.03;17.40;;;5.10;1.00;;;;;;5049095;28;20431;-71
2023/03/05 03:39:49;;;;;;;42.40;17.57;;;5.10;1.00;;;;;;5041983;28;20478;-71
2023/03/05 03:42:19;;;;;;;43.37;18.67;;;5.10;1.00;;;;;;5044315;28;20461;-71
2023/03/05 03:44:45;;;;;;;43.50;17.63;;;5.00;1.00;;;;;;5048410;28;20264;-71
2023/03/05 03:47:10;;;;;;;54.50;17.63;;;5.00;1.00;;;;;;5050244;28;20898;-71
2023/03/05 03:49:36;;;;;;;43.63;18.10;;;5.00;1.00;;;;;;5031820;28;20205;-71
2023/03/05 03:52:01;;;;;;;48.13;17.87;;;5.00;1.00;;;;;;5047737;28;20209;-71
2023/03/05 03:54:27;;;;;;;43.53;17.67;;;5.00;1.00;;;;;;5031765;28;20193;-71
2023/03/05 03:56:52;;;;;;;43.80;17.87;;;5.10;1.00;;;;;;5048350;28;20263;-71
2023/03/05 03:59:18;;;;;;;48.33;17.40;;;5.10;1.00;;;;;;5059918;28;20598;-70
2023/03/05 04:01:43;;;;;;;43.90;18.17;;;5.10;1.00;;;;;;5030440;28;20220;-71
2023/03/05 04:04:11;;;;;;;44.13;18.93;;;5.10;1.00;;;;;;5048062;28;20690;-71
2023/03/05 04:06:36;;;;;;;54.90;20.57;;;5.10;1.00;;;;;;5031054;28;20647;-71
2023/03/05 04:09:03;;;;;;;44.97;19.20;;;5.10;1.00;;;;;;5031738;28;20486;-71
2023/03/05 04:11:28;;;;;;;46.40;19.07;;;5.10;1.00;;;;;;5048733;28;20235;-71
2023/03/05 04:13:54;;;;;;;44.17;18.73;;;5.10;1.00;;;;;;5048127;28;20439;-70
2023/03/05 04:16:20;;;;;;;46.63;19.10;;;5.00;1.00;;;;;;5031597;28;20177;-71
2023/03/05 04:18:45;;;;;;;44.33;17.47;;;5.00;1.00;;;;;;5048510;28;20181;-71
2023/03/05 04:21:11;;;;;;;48.13;18.60;;;5.00;1.00;;;;;;5049016;28;20716;-71
2023/03/05 04:23:37;;;;;;;54.17;20.30;;;5.00;1.00;;;;;;5046068;28;20292;-71
2023/03/05 04:26:03;;;;;;;48.77;19.80;;;5.00;1.00;;;;;;5048897;28;20189;-71
2023/03/05 04:28:28;;;;;;;50.67;20.53;;;4.90;1.00;;;;;;5028770;28;20208;-71
2023/03/05 04:30:54;;;;;;;50.87;20.13;;;4.90;1.00;;;;;;5049101;28;20466;-71
2023/03/05 04:33:19;;;;;;;46.80;19.67;;;4.90;1.00;;;;;;5045454;28;20750;-70
2023/03/05 04:35:45;;;;;;;41.83;18.30;;;4.90;1.00;;;;;;5030725;28;20730;-71
2023/03/05 04:38:11;;;;;;;42.73;18.57;;;4.80;1.00;;;;;;5029675;28;20540;-71
2023/03/05 04:40:37;;;;;;;43.70;16.70;;;4.80;1.00;;;;;;5048891;28;20785;-70
2023/03/05 04:43:03;;;;;;;38.93;16.87;;;4.70;1.00;;;;;;5045839;28;20266;-70
2023/03/05 04:45:29;;;;;;;50.53;18.80;;;4.70;1.00;;;;;;5029990;28;20559;-71
2023/03/05 04:47:54;;;;;;;39.30;16.90;;;4.60;1.00;;;;;;5048836;28;20506;-71
2023/03/05 04:50:20;;;;;;;38.53;16.40;;;4.60;1.00;;;;;;5048177;28;20522;-71
2023/03/05 04:52:45;;;;;;;42.30;16.37;;;4.60;1.00;;;;;;5046912;28;20209;-71
2023/03/05 04:55:13;;;;;;;37.63;16.17;;;4.50;1.00;;;;;;5045482;28;20343;-71
2023/03/05 04:57:38;;;;;;;40.23;16.40;;;4.50;1.00;;;;;;5049081;28;20687;-70
2023/03/05 05:00:06;;;;;;;40.10;16.33;;;4.60;1.00;;;;;;5029900;28;20498;-71
2023/03/05 05:02:32;;;;;;;42.57;15.67;;;4.70;1.00;;;;;;5051847;28;20201;-70
2023/03/05 05:04:58;;;;;;;44.37;18.60;;;4.70;1.00;;;;;;5047270;28;20647;-71
2023/03/05 05:07:23;;;;;;;39.30;16.00;;;4.80;1.00;;;;;;5048926;28;20528;-71
2023/03/05 05:09:49;;;;;;;40.13;16.73;;;4.80;1.00;;;;;;5046141;28;20220;-70
2023/03/05 05:12:15;;;;;;;37.97;16.37;;;4.80;1.00;;;;;;5046957;28;20209;-71
2023/03/05 05:14:40;;;;;;;36.77;15.50;;;4.70;1.00;;;;;;5047417;28;20220;-71
2023/03/05 05:17:06;;;;;;;43.40;18.03;;;4.80;1.00;;;;;;5031228;28;20223;-71
2023/03/05 05:19:34;;;;;;;42.00;16.30;;;4.80;1.00;;;;;;5030169;28;20201;-71
2023/03/05 05:22:00;;;;;;;42.53;16.90;;;4.80;1.00;;;;;;5048932;28;20222;-71
2023/03/05 05:24:26;;;;;;;46.23;17.77;;;4.80;1.00;;;;;;5043868;28;20435;-71
2023/03/05 05:26:55;;;;;;;40.10;16.47;;;4.80;1.00;;;;;;5047846;28;20930;-70
2023/03/05 05:29:21;;;;;;;46.60;17.87;;;4.80;1.00;;;;;;5029142;28;20204;-70
2023/03/05 05:31:47;;;;;;;41.23;17.13;;;4.80;1.00;;;;;;5048420;28;20493;-71
2023/03/05 05:34:12;;;;;;;42.60;17.50;;;4.80;1.00;;;;;;5028785;28;20193;-70
2023/03/05 05:36:38;;;;;;;46.17;18.17;;;4.90;1.00;;;;;;5048788;28;20939;-74
2023/03/05 05:39:04;;;;;;;45.30;17.50;;;4.90;1.00;;;;;;5049357;28;20238;-70
2023/03/05 05:41:29;;;;;;;38.57;16.80;;;4.80;1.00;;;;;;5052800;28;20185;-71
2023/03/05 05:43:55;;;;;;;38.60;17.17;;;4.80;1.00;;;;;;5049811;28;20810;-71
2023/03/05 05:46:21;;;;;;;42.33;17.67;;;4.70;1.00;;;;;;5051803;28;20874;-71
2023/03/05 05:48:47;;;;;;;48.40;17.80;;;4.70;1.00;;;;;;5028585;28;20178;-71
2023/03/05 05:51:19;;;;;;;41.60;16.20;;;4.70;1.00;;;;;;5033140;28;20462;-71
2023/03/05 05:53:45;;;;;;;41.17;16.43;;;4.60;1.00;;;;;;5046215;28;20296;-71
2023/03/05 05:56:12;;;;;;;40.47;16.43;;;4.60;1.00;;;;;;5051589;28;20451;-70
2023/03/05 05:58:39;;;;;;;39.50;16.17;;;4.60;1.00;;;;;;5049612;28;20212;-71
2023/03/05 06:01:18;;;;;;;41.37;16.60;;;4.60;1.00;;;;;;5052412;28;20455;-71
2023/03/05 06:03:44;;;;;;;42.40;16.37;;;4.70;1.00;;;;;;5056033;28;20438;-71
2023/03/05 06:06:12;;;;;;;40.57;16.57;;;4.70;1.00;;;;;;5052120;28;20956;-70
2023/03/05 06:08:38;;;;;;;40.83;16.90;;;4.70;1.00;;;;;;5050588;28;20439;-70
2023/03/05 06:11:04;;;;;;;39.30;17.17;;;4.70;1.00;;;;;;5051951;28;20814;-70
2023/03/05 06:13:30;;;;;;;40.33;16.10;;;4.70;1.00;;;;;;5050753;28;20284;-71
2023/03/05 06:16:01;;;;;;;40.30;16.03;;;4.70;1.00;;;;;;5030795;28;20592;-71
2023/03/05 06:18:27;;;;;;;42.47;17.00;;;4.70;1.00;;;;;;5051530;28;20185;-70
2023/03/05 06:20:57;;;;;;;45.13;17.60;;;4.70;1.00;;;;;;5050485;28;20532;-71
2023/03/05 06:23:23;;;;;;;51.93;18.80;;;4.80;1.00;;;;;;5051377;28;20209;-70
2023/03/05 06:25:49;;;;;;;45.13;17.87;;;4.80;1.00;;;;;;5049812;28;20464;-70
2023/03/05 06:28:15;;;;;;;50.53;18.47;;;4.70;1.00;;;;;;5051581;28;21011;-70
2023/03/05 06:30:41;;;;;;;49.50;18.70;;;4.80;1.00;;;;;;5050544;28;20256;-71
2023/03/05 06:33:06;;;;;;;50.77;20.20;;;4.80;1.00;;;;;;5050218;28;20557;-70
2023/03/05 06:35:32;;;;;;;46.53;19.37;;;4.80;1.00;;;;;;5051096;28;20200;-70
2023/03/05 06:37:57;;;;;;;41.70;16.90;;;4.80;1.00;;;;;;5031919;28;20193;-71
2023/03/05 06:40:23;;;;;;;46.57;17.90;;;4.90;1.00;;;;;;5050783;28;20213;-71
2023/03/05 06:42:49;;;;;;;37.97;17.50;;;4.80;1.00;;;;;;5032484;28;20212;-71
2023/03/05 06:45:14;;;;;;;43.80;19.03;;;4.80;1.00;;;;;;5050567;28;20656;-70
2023/03/05 06:47:40;;;;;;;41.10;17.30;;;5.00;1.00;;;;;;5050595;28;20655;-71
2023/03/05 06:50:06;;;;;;;41.47;16.47;;;4.80;1.00;;;;;;5049039;28;20178;-71
2023/03/05 06:52:31;;;;;;;47.90;17.60;;;4.80;1.00;;;;;;5050288;28;20518;-70
2023/03/05 06:54:57;;;;;;;43.43;18.03;;;4.80;1.00;;;;;;5050460;28;20267;-71
2023/03/05 06:57:22;;;;;;;42.90;18.83;;;4.80;1.00;;;;;;5051158;28;20185;-71
2023/03/05 06:59:48;;;;;;;40.53;17.80;;;4.80;1.00;;;;;;5049970;28;20248;-71
2023/03/05 07:02:14;;;;;;;45.37;19.23;;;4.90;1.00;;;;;;5049845;28;20574;-70
2023/03/05 07:04:40;;;;;;;46.53;20.50;;;4.90;1.00;;;;;;5031343;28;20193;-71
2023/03/05 07:07:05;;;;;;;42.53;17.27;;;5.00;1.00;;;;;;5051053;28;20231;-71
2023/03/05 07:09:31;;;;;;;39.17;16.27;;;5.10;1.00;;;;;;5049371;28;20273;-70
2023/03/05 07:11:56;;;;;;;44.60;17.23;;;5.10;1.00;;;;;;5032845;28;20208;-70
2023/03/05 07:14:22;;;;;;;46.87;16.77;;;5.00;1.00;;;;;;5048886;28;20269;-70
2023/03/05 07:16:47;;;;;;;39.30;17.23;;;5.00;1.00;;;;;;5049741;28;20213;-71
2023/03/05 07:19:13;;;;;;;43.87;17.57;;;5.00;1.00;;;;;;5047859;28;20213;-71
2023/03/05 07:21:39;;;;;;;40.23;17.03;;;5.00;1.00;;;;;;5049838;28;20639;-71
2023/03/05 07:24:05;;;;;;;39.60;17.27;;;5.00;1.00;;;;;;5050114;28;20231;-71
2023/03/05 07:26:34;;;;;;;45.30;18.43;;;5.10;1.00;;;;;;5032068;28;20235;-70
2023/03/05 07:29:01;;;;;;;44.80;19.17;;;5.10;1.00;;;;;;5027973;28;20519;-71
2023/03/05 07:31:29;;;;;;;41.00;17.87;;;5.20;1.00;;;;;;5045289;28;20522;-71
2023/03/05 07:33:55;;;;;;;52.07;17.90;;;5.20;1.00;;;;;;5046689;28;20485;-71
2023/03/05 07:36:21;;;;;;;39.93;17.33;;;5.20;1.00;;;;;;5050569;28;20813;-71
2023/03/05 07:38:47;;;;;;;43.47;17.63;;;5.30;1.00;;;;;;5031272;28;20522;-70
2023/03/05 07:41:18;;;;;;;37.67;16.97;;;5.30;1.00;;;;;;5048816;28;20302;-71
2023/03/05 07:43:44;;;;;;;43.60;17.27;;;5.40;1.00;;;;;;5029920;28;20184;-71
2023/03/05 07:46:11;;;;;;;47.67;20.10;;;5.50;1.00;;;;;;5042594;28;20480;-71
2023/03/05 07:48:37;;;;;;;40.97;17.60;;;5.50;1.00;;;;;;5050114;28;20419;-71
2023/03/05 07:51:09;;;;;;;45.13;17.87;;;5.50;1.00;;;;;;5049214;28;20855;-70
2023/03/05 07:53:35;;;;;;;42.00;16.50;;;5.50;1.00;;;;;;5045608;28;20228;-70
2023/03/05 07:56:00;;;;;;;46.17;18.47;;;5.50;1.00;;;;;;5047167;28;20439;-71
2023/03/05 07:58:26;;;;;;;42.90;17.57;;;5.60;1.00;;;;;;5049646;28;20247;-71
2023/03/05 08:00:51;;;;;;;45.03;17.70;;;5.70;1.00;;;;;;5046371;28;20205;-70
2023/03/05 08:03:17;;;;;;;43.70;18.77;;;5.70;1.00;;;;;;5049884;28;20204;-71
2023/03/05 08:05:43;;;;;;;47.17;18.87;;;5.80;1.00;;;;;;5045181;28;20186;-71
2023/03/05 08:08:09;;;;;;;39.83;17.40;;;5.90;1.00;;;;;;5031668;28;20177;-70
2023/03/05 08:10:36;;;;;;;44.23;18.10;;;5.90;1.00;;;;;;5031199;28;20532;-70
2023/03/05 08:13:01;;;;;;;44.73;18.10;;;6.00;1.00;;;;;;5049064;28;20284;-71
2023/03/05 08:15:27;;;;;;;45.83;18.67;;;6.10;1.00;;;;;;5029473;28;20534;-71
2023/03/05 08:17:53;;;;;;;39.27;17.40;;;6.10;1.00;;;;;;5049346;28;20191;-70
2023/03/05 08:20:18;;;;;;;42.40;17.90;;;6.20;1.00;;;;;;5048800;28;20235;-71
2023/03/05 08:22:45;;;;;;;39.53;17.83;;;6.40;1.00;;;;;;5048897;28;20205;-70
2023/03/05 08:25:11;;;;;;;34.20;17.20;;;6.60;1.00;;;;;;5047888;28;20185;-71
2023/03/05 08:27:39;;;;;;;37.27;18.30;;;6.90;1.00;;;;;;5049257;28;20479;-71
2023/03/05 08:30:05;;;;;;;47.20;18.40;;;7.00;1.00;;;;;;5028420;28;20439;-71
2023/03/05 08:32:31;;;;;;;44.53;18.80;;;7.10;1.00;;;;;;5048451;28;20452;-71
2023/03/05 08:35:01;;;;;;;41.30;17.77;;;7.20;1.00;;;;;;5047317;28;20497;-71
2023/03/05 08:37:27;;;;;;;36.73;16.47;;;7.40;1.00;;;;;;5049434;28;20177;-71
2023/03/05 08:39:54;;;;;;;39.20;18.20;;;7.50;1.00;;;;;;5047938;28;20459;-71
2023/03/05 08:42:19;;;;;;;48.47;18.27;;;7.60;1.00;;;;;;5048823;28;20201;-71
2023/03/05 08:44:45;;;;;;;37.93;18.07;;;7.80;1.00;;;;;;5047042;28;20797;-72
2023/03/05 08:47:11;;;;;;;40.17;17.90;;;8.00;1.00;;;;;;5049541;28;20215;-72
2023/03/05 08:49:37;;;;;;;39.50;19.33;;;8.20;1.00;;;;;;5048225;28;20268;-71
2023/03/05 08:52:02;;;;;;;38.00;18.70;;;8.50;1.00;;;;;;5048843;28;20552;-71
2023/03/05 08:54:28;;;;;;;34.07;16.77;;;8.70;1.00;;;;;;5043995;28;20268;-72
2023/03/05 08:56:53;;;;;;;30.37;16.03;;;8.90;1.00;;;;;;5046870;28;20189;-71
2023/03/05 08:59:19;;;;;;;29.20;15.47;;;8.90;1.00;;;;;;5048658;28;20225;-71
2023/03/05 09:01:44;;;;;;;33.43;16.47;;;8.80;1.00;;;;;;5048552;28;20701;-71
2023/03/05 09:04:10;;;;;;;32.53;15.20;;;8.80;1.00;;;;;;5029134;28;20185;-72
2023/03/05 09:06:39;;;;;;;31.93;16.43;;;8.90;1.00;;;;;;5049139;28;20264;-71
2023/03/05 09:09:08;;;;;;;34.13;15.33;;;9.00;1.00;;;;;;5047553;28;20195;-72
2023/03/05 09:11:35;;;;;;;24.23;13.63;;;9.00;1.00;;;;;;5046130;28;20563;-71
2023/03/05 09:14:04;;;;;;;28.87;15.13;;;8.90;1.00;;;;;;5049785;28;20992;-71
2023/03/05 09:16:30;;;;;;;28.73;13.70;;;8.90;1.00;;;;;;5047329;28;20798;-71
2023/03/05 09:18:57;;;;;;;30.90;15.90;;;9.10;1.00;;;;;;5052490;28;20427;-72
2023/03/05 09:21:22;;;;;;;25.80;13.90;;;9.20;1.00;;;;;;5052518;28;20771;-72
2023/03/05 09:23:48;;;;;;;29.83;16.13;;;9.30;1.00;;;;;;5051016;28;20519;-71
2023/03/05 09:26:17;;;;;;;30.50;15.10;;;9.40;1.00;;;;;;5052974;28;20192;-71
2023/03/05 09:28:45;;;;;;;29.87;15.20;;;9.30;1.00;;;;;;5051692;28;20213;-71
2023/03/05 09:31:11;;;;;;;29.67;15.60;;;9.30;1.00;;;;;;5033048;28;20443;-71
2023/03/05 09:33:38;;;;;;;30.00;16.23;;;9.40;1.00;;;;;;5051044;28;20524;-71
2023/03/05 09:36:05;;;;;;;29.93;15.53;;;9.60;1.00;;;;;;5052605;28;20188;-72
2023/03/05 09:38:31;;;;;;;26.43;14.60;;;9.80;1.00;;;;;;5050556;28;20431;-71
2023/03/05 09:41:13;;;;;;;26.77;14.50;;;9.80;1.00;;;;;;5052220;28;20806;-72
2023/03/05 09:43:44;;;;;;;32.63;14.77;;;9.70;1.00;;;;;;5050492;28;20230;-72
2023/03/05 09:46:37;;;;;;;23.03;12.83;;;9.40;1.00;;;;;;5034285;28;20478;-71
2023/03/05 09:49:03;;;;;;;20.30;12.50;;;9.40;1.00;;;;;;5050270;28;20941;-72
2023/03/05 09:51:33;;;;;;;23.67;12.83;;;9.40;1.00;;;;;;5051989;28;20438;-72
2023/03/05 09:54:05;;;;;;;20.23;11.90;;;9.30;1.00;;;;;;5052529;28;20272;-71
2023/03/05 09:56:36;;;;;;;23.70;12.80;;;9.10;1.00;;;;;;5034240;28;20477;-71
2023/03/05 09:59:16;;;;;;;23.87;13.03;;;9.10;1.00;;;;;;5049905;28;20947;-72
2023/03/05 10:01:43;;;;;;;22.13;12.17;;;9.20;1.00;;;;;;5052119;28;20476;-71
2023/03/05 10:04:12;;;;;;;21.27;12.03;;;9.00;1.00;;;;;;5051793;28;20706;-71
2023/03/05 10:07:01;;;;;;;21.20;11.10;;;8.70;1.00;;;;;;5048725;28;20444;-71
2023/03/05 10:09:46;;;;;;;26.00;13.03;;;8.50;1.00;;;;;;5050377;28;20446;-73
2023/03/05 10:12:37;;;;;;;21.90;10.53;;;8.40;1.00;;;;;;5051145;28;20537;-72
2023/03/05 10:15:28;;;;;;;22.17;10.57;;;8.20;1.00;;;;;;5047261;28;20435;-72
2023/03/05 10:18:03;;;;;;;18.10;10.57;;;8.20;1.00;;;;;;5039362;28;20817;-72
2023/03/05 10:21:10;;;;;;;18.30;10.10;;;8.10;1.00;;;;;;5049801;28;20474;-72
2023/03/05 10:23:43;;;;;;;16.50;10.10;;;7.90;1.00;;;;;;4996770;28;20457;-71
2023/03/05 10:26:44;;;;;;;18.33;10.10;;;7.90;1.00;;;;;;5041737;28;20772;-71
2023/03/05 10:29:35;;;;;;;18.27;9.43;;;8.10;1.00;;;;;;5031730;28;20428;-72
2023/03/05 10:32:31;;;;;;;14.43;8.47;;;8.40;1.00;;;;;;5029668;28;20214;-73
2023/03/05 10:35:48;;;;;;;18.07;8.83;;;8.70;1.00;;;;;;5047218;28;21015;-72
2023/03/05 10:38:33;;;;;;;21.00;10.30;;;8.80;1.00;;;;;;5048998;28;20860;-72
2023/03/05 10:41:20;;;;;;;16.57;8.30;;;8.80;1.00;;;;;;5050133;28;20483;-72
2023/03/05 10:43:50;;;;;;;14.20;7.77;;;8.80;1.00;;;;;;5049650;28;20501;-72
2023/03/05 10:46:19;;;;;;;12.43;6.97;;;9.00;1.00;;;;;;5051051;28;20431;-72
2023/03/05 10:48:51;;;;;;;15.67;7.80;;;9.10;1.00;;;;;;5048659;28;20439;-70
2023/03/05 10:51:30;;;;;;;13.13;6.83;;;9.10;1.00;;;;;;5048917;28;20435;-72
2023/03/05 10:54:00;;;;;;;13.63;7.30;;;9.20;1.00;;;;;;5020552;28;20448;-72
2023/03/05 10:56:27;;;;;;;17.10;7.50;;;9.20;1.00;;;;;;5046594;28;20459;-71
2023/03/05 10:58:53;;;;;;;13.40;7.23;;;9.20;1.00;;;;;;5049208;28;20945;-71
2023/03/05 11:01:23;;;;;;;13.60;7.30;;;9.10;1.00;;;;;;5050384;28;20474;-71
2023/03/05 11:03:59;;;;;;;18.10;7.87;;;9.10;1.00;;;;;;5049846;28;20555;-71
2023/03/05 11:06:31;;;;;;;13.93;7.10;;;9.20;1.00;;;;;;5032109;28;20945;-71
2023/03/05 11:09:28;;;;;;;14.53;7.70;;;9.10;1.00;;;;;;5048246;28;20444;-71
2023/03/05 11:12:05;;;;;;;16.83;7.80;;;8.90;1.00;;;;;;5046349;28;21032;-70
2023/03/05 11:14:32;;;;;;;16.93;7.93;;;8.70;1.00;;;;;;5050019;28;20461;-71
2023/03/05 11:17:00;;;;;;;12.93;6.47;;;8.50;1.00;;;;;;5048746;28;20428;-71
2023/03/05 11:19:31;;;;;;;12.37;6.73;;;8.60;1.00;;;;;;5048920;28;20456;-71
2023/03/05 11:22:26;;;;;;;13.00;7.80;;;8.50;1.00;;;;;;5050527;28;20478;-70
2023/03/05 11:25:09;;;;;;;14.00;7.03;;;8.50;1.00;;;;;;5031186;28;20470;-70
2023/03/05 11:27:48;;;;;;;16.43;7.50;;;8.40;1.00;;;;;;5048213;28;20963;-70
2023/03/05 11:30:35;;;;;;;15.83;7.80;;;8.40;1.00;;;;;;5050477;28;20458;-70
2023/03/05 11:33:08;;;;;;;11.80;6.30;;;8.30;1.00;;;;;;5047820;28;20523;-70
2023/03/05 11:35:37;;;;;;;15.20;7.03;;;8.30;1.00;;;;;;5048051;28;20442;-70
2023/03/05 11:38:05;;;;;;;13.90;6.63;;;8.30;1.00;;;;;;5048970;28;20423;-70
2023/03/05 11:40:34;;;;;;;12.50;6.37;;;8.30;1.00;;;;;;5031002;28;20512;-70
2023/03/05 11:43:02;;;;;;;11.57;6.33;;;8.20;1.00;;;;;;5049296;28;20431;-70
2023/03/05 11:45:30;;;;;;;12.33;6.73;;;8.20;1.00;;;;;;5049898;28;20423;-70
2023/03/05 11:48:16;;;;;;;12.30;5.20;;;8.30;1.00;;;;;;5045804;28;20540;-70
2023/03/05 11:50:45;;;;;;;11.03;5.30;;;8.20;1.00;;;;;;5045520;28;20469;-70
2023/03/05 11:53:20;;;;;;;9.03;4.90;;;8.20;1.00;;;;;;5045775;28;20463;-71
2023/03/05 11:55:53;;;;;;;9.07;5.27;;;8.30;1.00;;;;;;5047694;28;21047;-71
2023/03/05 11:58:43;;;;;;;8.77;5.23;;;8.40;1.00;;;;;;5031381;28;20949;-70
2023/03/05 12:01:15;;;;;;;11.73;5.33;;;8.50;1.00;;;;;;5064835;22;20993;-71
2023/03/05 12:03:42;;;;;;;9.40;4.87;;;8.50;1.00;;;;;;5041436;28;20435;-71
2023/03/05 12:06:07;;;;;;;14.07;6.20;;;8.60;1.00;;;;;;5050358;28;20933;-71
2023/03/05 12:08:37;;;;;;;11.80;5.57;;;8.60;1.00;;;;;;5050333;28;20472;-71
2023/03/05 12:11:11;;;;;;;7.90;5.17;;;8.70;1.00;;;;;;5023667;28;20733;-72
2023/03/05 12:13:45;;;;;;;9.90;4.60;;;8.90;1.00;;;;;;5012414;28;20440;-71
2023/03/05 12:16:27;;;;;;;10.07;5.20;;;9.00;1.00;;;;;;5012730;28;20575;-71
2023/03/05 12:19:27;;;;;;;8.77;4.50;;;9.00;1.00;;;;;;5030351;28;20841;-71
2023/03/05 12:21:53;;;;;;;10.00;4.87;;;9.00;1.00;;;;;;5034547;28;20432;-71
2023/03/05 12:24:22;;;;;;;10.70;4.77;;;9.10;1.00;;;;;;5029292;28;20486;-71
2023/03/05 12:27:03;;;;;;;9.50;5.40;;;9.10;1.00;;;;;;5030587;28;20934;-71
2023/03/05 12:29:36;;;;;;;12.60;5.20;;;9.20;1.00;;;;;;5025783;28;21076;-71
2023/03/05 12:32:04;;;;;;;10.50;5.00;;;9.00;1.00;;;;;;5014874;28;20495;-71
2023/03/05 12:34:44;;;;;;;9.10;4.77;;;8.80;1.00;;;;;;5029891;28;20432;-71
2023/03/05 12:37:12;;;;;;;8.07;4.87;;;8.60;1.00;;;;;;5012171;28;20978;-71
2023/03/05 12:39:46;;;;;;;8.00;4.70;;;8.70;1.00;;;;;;5029689;28;20531;-71
2023/03/05 12:42:32;;;;;;;7.67;3.90;;;8.70;1.00;;;;;;5029898;28;20437;-71
2023/03/05 12:45:15;;;;;;;5.90;3.80;;;8.60;1.00;;;;;;5019164;28;20429;-71
2023/03/05 12:47:43;;;;;;;8.27;4.30;;;8.80;1.00;;;;;;5017126;28;20429;-71
2023/03/05 12:50:26;;;;;;;5.90;3.50;;;8.90;1.00;;;;;;5027624;28;20443;-71
2023/03/05 12:52:58;;;;;;;5.43;3.50;;;11.60;1.00;;;;;;5029751;28;20451;-71
2023/03/05 12:55:44;;;;;;;6.90;3.60;;;8.80;1.00;;;;;;5011465;28;21007;-71
2023/03/05 12:58:30;;;;;;;6.00;3.90;;;8.70;1.00;;;;;;5029607;28;20930;-71
2023/03/05 13:01:05;;;;;;;5.67;3.07;;;8.60;1.00;;;;;;5037886;28;20502;-71